Terminal Aerodrome Forecast
Issued by NWS

Home | Current Version | Previous Version | Text Only | Print | Product List | Glossary On
Versions: 1 2 3 4 5 6 7 8 9 10 11 12 13 14 15 16 17 18 19
933
FTUS43 KTOP 132328
TAFMHK
TAF
KMHK 132328Z 1400/1424 12010KT P6SM BKN060
     FM141000 21005KT P6SM BKN030
     FM141300 25007KT P6SM SCT050
     FM142000 30006KT P6SM SCT050=

USA.gov is the U.S. government's official web portal to all federal, state and local government web resources and services.